AirNav  
 
 595 users online  

1WA6 Fall City Airport
Fall City, Washington, USA

GOING TO FALL CITY?


FAA INFORMATION EFFECTIVE 25 MARCH 2021

Location

FAA Identifier: 1WA6
Lat/Long: 47-33-34.3660N 121-51-49.4130W
47-33.572767N 121-51.823550W
47.5595461,-121.8637258
(estimated)
Elevation: 140 ft. / 43 m (estimated)
Variation: 20E (1985)
From city: 2 miles E of FALL CITY, WA
Time zone: UTC -7 (UTC -8 during Standard Time)
Zip code: 98024

Airport Operations

Airport use: Private use. Permission required prior to landing
Control tower: no
ARTCC: SEATTLE CENTER
FSS: SEATTLE FLIGHT SERVICE STATION
Attendance: UNATNDD
Wind indicator: yes
Segmented circle: yes
Landing fee: yes

Airport Communications

WX ASOS at RNT (15 nm W): 126.95 (425-255-6080)
WX ASOS at BFI (18 nm W): PHONE 206-658-6435
WX ASOS at SEA (19 nm W): 127.75 (206-214-2592)

Nearby radio navigation aids

VOR radial/distance  VOR name  Freq  Var
SEAr049/19.6SEATTLE VORTAC116.8019E
PAEr122/27.3PAINE VOR/DME110.6020E

Airport Services

Fuel available: 100LL
EMERGENCY ONLY - LIMITED SUPPLY.
Airframe service: NONE
Powerplant service: NONE

Runway Information

Runway E/W

Dimensions: 3000 x 25 ft. / 914 x 8 m
CENTER 1625 FT OF RY PAVED; 687.5 FT GRASS EXTENSION EACH END RY.
Surface: asphalt/turf
RUNWAY E  RUNWAY W
Traffic pattern: rightright
Obstructions: nonetrees

Airport Ownership and Management from official FAA records

Ownership: Privately-owned
Owner: FALL CITY AIRPORT ASSOCIATION
4642 - 357TH AVE SE
FALL CITY, WA 98024
Phone 425-922-6251
Manager: WALT HAAG
4642 357TH AVE SE
FALL CITY, WA 98024
Phone 4259226251

Airport Operational Statistics

Aircraft based on the field: 10
Single engine airplanes: 9
Multi engine airplanes: 1
    

Additional Remarks

FOR CD CTC SEATTLE APCH AT 206-214-4794.

Instrument Procedures

There are no published instrument procedures at 1WA6.

Some nearby airports with instrument procedures:

KRNT - Renton Municipal Airport (15 nm W)
KBFI - Boeing Field/King County International Airport (18 nm W)
KSEA - Seattle-Tacoma International Airport (19 nm W)
S50 - Auburn Municipal Airport (20 nm SW)
S43 - Harvey Field Airport (23 nm NW)
 
Loc | Ops | Rwys | IFR | FBO | Links
Com | Nav | Svcs | Stats | Notes
Area around 1WA6 (Fall City Airport)
 
Road maps at: MapQuest Bing Google
 
Aerial photo
WARNING: Photo may not be current or correct
Aerial photo of 1WA6 (Fall City Airport)
Photo taken 10-Sep-2011
looking northeast.

Do you have a better or more recent aerial photo of Fall City Airport that you would like to share? If so, please send us your photo.

 
Sectional chart

 
Airport distance calculator
Flying to Fall City Airport? Find the distance to fly.

From to 1WA6

Sunrise and sunset
Times for 19-Apr-2021
 Local
(UTC-7)
 Zulu
(UTC)
Morning civil twilight05:3912:39
Sunrise06:1213:12
Sunset20:0103:01
Evening civil twilight20:3403:34

Current date and time
Zulu (UTC)  19-Apr-2021 11:04:11
Local (UTC-7)  19-Apr-2021 04:04:11
 
METAR
KRNT 
15nm W 
191053Z AUTO 00000KT 10SM CLR 10/03 A3020 RMK AO2 SLP232 T01000028
KBFI 
18nm W 
191053Z 12003KT 10SM CLR 11/02 A3020 RMK AO2 SLP227 T01060017
KSEA 
20nm W 
191053Z 19003KT 10SM CLR 11/02 A3020 RMK AO2 SLP231 T01060022
KSMP 
27nm SE 
191056Z AUTO 00000KT 10SM CLR 08/M03 A3021 RMK AO2 SLP218 T00781033
KPAE 
27nm NW 
191053Z AUTO 00000KT 10SM CLR 10/04 A3020 RMK AO2 SLP227 T01000044
TAF
KBFI 
18nm W 
190536Z 1906/2006 00000KT P6SM SCT200 FM191200 15003KT P6SM SCT200 FM192000 25005KT P6SM SCT200 FM200200 30005KT P6SM SCT200
KSEA 
20nm W 
190905Z 1909/2012 20005KT P6SM SCT200 FM191200 18004KT P6SM SCT200 FM192000 25006KT P6SM SCT200 FM200300 02007KT P6SM SCT200
NOTAMs
Click for the latest NOTAMs
NOTAMs are issued by the DoD/FAA and will open in a separate window not controlled by AirNav.

 

 
 

Would you like to see your business listed on this page?

 If your business provides an interesting product or service to pilots, flight crews, aircraft, or users of the Fall City Airport, you should consider listing it here.  To start the listing process, click on the button below
 
Add a business
 

Other Pages about Fall City Airport

Update a link
 
Copyright © AirNav, LLC. All rights reserved. Privacy Policy  Contact